Sitka Rocky Gutierrez Airport
PASI : now visible

Airfield :











YOU CAN JOIN US ON...

 
LOGIN :

Register | Disclaimer

   EN    FR    IT 

 









Legend :    VFR   Marginal VFR   IFR   Intensive IFR   Very Intensive IFR
Visi :
Ceiling :
>= 8 km
>= 3000ft
5 to 8 km
1000 to 3000 ft
1500m to 5 km
500 to 1000 ft
800 to 1500m
200 to 500 ft
< 800m
< 200 ft
Symbols :   Thunderstorms  Fog  Heavy snow  Heavy precipitations  Wind > 20 kt






- Airport Elevation : 21 ft
- IATA code : SIT


PASI - Sitka Rocky Gutierrez

CURRENT METAR :
  • 170553Z 13015G23KT 10SM OVC070 12/04 A2937 RMK AO2 PK WND 13027/0509 RAE51 SLP946 P0000 60000 T01220039 10128 20122 56029 $

EXPIRED METARs :
  • 170453Z 13019G27KT 10SM -RA OVC070 12/03 A2939 RMK AO2 PK WND 12027/0450 RAB48 SLP954 P0000 T01220033 $
  • 170353Z 12015G23KT 10SM FEW044 OVC075 12/04 A2942 RMK AO2 SLP961 T01220039 $

TAF PASI
Valid from the 17 at 06:00 until the 18 at 06:00 UTC


170537Z 1706/1806 12015G25KT 6SM -RA FEW025 BKN060 OVC100 WS020/14045KT
FM171500 06012KT 6SM -RA OVC025
FM171800 07009KT P6SM VCSH FEW025 OVC050
PAZA FIR / North America



MET'MAP, your aeronautical weather chart ! - Copyright ORBIFLY December 2007 - Disclaimer

ORBIFLY MET'MAP TEAM :

Programming & Development : Alexandra Zaïnal
Concept & original design : Baudouin d'Aumeries
Assistance for programming : Marc-Olivier Méhu
Technical & hardware support : Manuel Goepfert

Contact : metmap@orbifly.com




SOURCES & CREDITS :

   NOAA       Earth
Advisory